Marathon, FL (33050)

5:26 PM EDT on October 01, 2016 (GMT -0400)
APRSWXNET | | Change Station

Elev 15 ft 24.74 °N, 80.98 °W | Updated 23 minutes ago

Mostly Cloudy
Mostly Cloudy
85 °F
Feels Like 96 °F
N
6
Wind Variable Wind from NE
Gusts 14.0 mph

Today
High -- | Low -- °F
--% Chance of Precip.
Yesterday
High -- | Low -- °F
Precip. -- in
Pressure 29.92 in
Visibility 10.0 miles
Clouds Scattered Clouds 3100 ft
Mostly Cloudy 15000 ft
Heat Index 96 °F
Dew Point 78 °F
Humidity 79%
Rainfall in
Snow Depth Not available.
7:16 AM 7:10 PM
New Moon, 1% visible
SPECI KNQX 012102Z 07010KT 10SM SCT031 BKN150 31/23 A2992 RMK AO2 T03110228 $
Pressure 29.92 in
Visibility 10.0 miles
Clouds Scattered Clouds 3100 ft
Mostly Cloudy 15000 ft
Heat Index 96 °F
Dew Point 78 °F
Humidity 79%
Rainfall in
Snow Depth Not available.
7:16 AM 7:10 PM
New Moon, 1% visible
SPECI KNQX 012102Z 07010KT 10SM SCT031 BKN150 31/23 A2992 RMK AO2 T03110228 $

10-Day Weather Forecast

Almanac

Astronomy

Oct. 01, 2016 Rise Set
Actual Time
Civil Twilight
Nautical Twilight
Astronomical Twilight
Moon
Length of Visible Light
Length of Day
Tomorrow will be .
, % of the Moon is Illuminated

Today's Extremes

State Highs State Lows

Community

WunderPhotos

Upload Photos

1,943,026 photos uploaded!

WunderBlog® & News

Nearby

Air Quality

  Air Quality AQ Index Pollutant
Not available.

Snow Depth

Station Depth Elevation

Earthquake Activity

City Distance Mag. Time & Date
Minimum magnitude displayed is 2.5.

Coastal Water Temperatures

Place Temperature

Stations

Nearby Weather Stations

Station Location Temp. Windchill Dew Point Humidity Wind Precip. Elev Updated Type
                   

Watches & Warnings

There are currently no watches in effect.